createdAt,value
2022-12-24T00:56:24.704Z,8.88
2022-12-24T00:58:54.016Z,5.55
2022-12-24T01:01:27.089Z,5.07
2022-12-24T01:04:18.032Z,4.57
2022-12-24T01:06:46.457Z,4.43
2022-12-24T01:09:15.441Z,3.88
2022-12-24T01:11:42.727Z,3.97
2022-12-24T01:14:09.819Z,4.82
2022-12-24T01:16:37.215Z,6.60
2022-12-24T01:19:09.133Z,5.05
2022-12-24T01:21:51.993Z,6.55
2022-12-24T01:30:26.556Z,5.20
2022-12-24T01:33:33.204Z,5.80
2022-12-24T01:36:18.337Z,6.72
2022-12-24T01:42:19.624Z,7.22
2022-12-24T01:44:49.815Z,7.50
2022-12-24T01:47:25.875Z,8.65
2022-12-24T01:50:03.721Z,8.27
2022-12-24T01:52:36.791Z,7.82
2022-12-24T01:55:12.988Z,9.75
2022-12-24T01:57:50.733Z,5.72
2022-12-24T02:00:18.180Z,7.53
2022-12-24T02:02:49.780Z,6.78
2022-12-24T02:05:28.970Z,7.93
2022-12-24T02:07:57.408Z,5.82
2022-12-24T02:10:30.192Z,5.88
2022-12-24T02:12:57.985Z,5.13
2022-12-24T02:15:39.644Z,6.18
2022-12-24T02:18:21.030Z,5.25
2022-12-24T02:21:10.152Z,3.85
2022-12-24T02:23:57.266Z,5.60
2022-12-24T02:27:15.117Z,5.40
2022-12-24T02:29:57.836Z,5.05
2022-12-24T02:32:29.052Z,5.70
2022-12-24T02:35:25.164Z,4.32
2022-12-24T02:38:31.248Z,4.80
2022-12-24T02:41:20.838Z,4.00
2022-12-24T02:43:55.186Z,3.97
2022-12-24T02:46:31.796Z,3.95
2022-12-24T02:49:08.143Z,4.03
2022-12-24T02:51:49.304Z,3.40
2022-12-24T03:01:21.534Z,6.07
2022-12-24T03:04:03.579Z,7.85
2022-12-24T03:07:24.031Z,10.73
2022-12-24T03:10:04.765Z,9.65
2022-12-24T03:15:32.019Z,8.38
2022-12-24T03:21:07.446Z,11.25
2022-12-24T03:23:37.520Z,11.70
2022-12-24T03:26:09.298Z,10.90
2022-12-24T03:28:42.796Z,14.20
2022-12-24T03:31:17.239Z,12.43
2022-12-24T03:33:46.018Z,14.23
2022-12-24T03:36:13.792Z,11.68
2022-12-24T03:38:54.713Z,10.48
2022-12-24T03:41:24.893Z,10.15
2022-12-24T03:43:53.847Z,15.07
2022-12-24T03:46:36.160Z,11.93
2022-12-24T03:51:42.214Z,11.35
2022-12-24T03:54:10.283Z,9.23
2022-12-24T03:56:43.949Z,11.38
2022-12-24T04:06:33.846Z,10.82
2022-12-24T04:10:06.416Z,9.70
2022-12-24T04:25:05.525Z,12.73
2022-12-24T04:27:40.508Z,11.57
2022-12-24T04:30:44.967Z,15.57
2022-12-24T04:36:29.753Z,13.18
2022-12-24T04:39:08.223Z,15.50
2022-12-24T04:41:43.119Z,14.15
2022-12-24T04:44:22.197Z,13.17
2022-12-24T04:47:01.947Z,14.85
2022-12-24T04:49:33.372Z,13.70
2022-12-24T04:52:13.535Z,16.42
2022-12-24T04:54:44.025Z,14.60
2022-12-24T04:57:19.987Z,18.13
2022-12-24T05:00:01.581Z,18.48
2022-12-24T05:02:37.563Z,19.65
2022-12-24T05:05:22.609Z,17.40
2022-12-24T05:08:05.487Z,18.08
2022-12-24T05:10:55.664Z,15.55
2022-12-24T05:13:23.313Z,20.13
2022-12-24T05:15:50.997Z,16.80
2022-12-24T05:18:19.389Z,17.00
2022-12-24T05:20:49.561Z,16.30
2022-12-24T05:23:37.444Z,19.00
2022-12-24T05:26:23.426Z,19.83
2022-12-24T05:29:01.058Z,16.00
2022-12-24T05:31:34.542Z,19.42
2022-12-24T05:34:06.887Z,18.10
2022-12-24T05:39:19.389Z,14.88
2022-12-24T05:41:51.270Z,17.23
2022-12-24T05:44:22.583Z,19.20
2022-12-24T05:46:51.797Z,22.17
2022-12-24T05:49:21.201Z,21.35
2022-12-24T05:52:09.547Z,17.20
2022-12-24T05:54:38.737Z,20.70
2022-12-24T05:57:07.503Z,17.95
2022-12-24T05:59:34.677Z,18.95
2022-12-24T06:02:03.001Z,20.65
2022-12-24T06:04:30.151Z,14.98
2022-12-24T06:06:57.226Z,20.02
2022-12-24T06:09:24.178Z,19.70
2022-12-24T06:11:51.332Z,21.23
2022-12-24T06:14:18.403Z,17.63
2022-12-24T06:16:45.482Z,18.38
2022-12-24T06:19:12.588Z,19.02
2022-12-24T06:21:39.681Z,16.23
2022-12-24T06:24:06.967Z,20.17
2022-12-24T06:26:34.009Z,21.88
2022-12-24T06:29:01.060Z,21.33
2022-12-24T06:31:28.174Z,21.35
2022-12-24T06:33:55.487Z,20.45
2022-12-24T06:36:24.049Z,21.75
2022-12-24T06:38:51.398Z,18.65
2022-12-24T06:41:18.585Z,18.63
2022-12-24T06:43:46.417Z,20.83
2022-12-24T06:46:13.792Z,19.10
2022-12-24T06:48:40.998Z,18.70
2022-12-24T06:51:08.074Z,16.15
2022-12-24T06:53:35.044Z,18.85
2022-12-24T06:56:06.289Z,18.17
2022-12-24T06:58:33.825Z,18.83
2022-12-24T07:01:07.983Z,17.98
2022-12-24T07:03:35.281Z,17.77
2022-12-24T07:06:02.483Z,18.42
2022-12-24T07:08:29.806Z,17.30
2022-12-24T07:10:56.761Z,17.92
2022-12-24T07:13:23.791Z,15.18
2022-12-24T07:16:00.808Z,17.63
2022-12-24T07:18:28.328Z,20.92
2022-12-24T07:24:49.654Z,18.83
2022-12-24T07:28:39.975Z,19.38
2022-12-24T07:31:15.163Z,17.50
2022-12-24T07:39:49.204Z,17.65
2022-12-24T07:42:16.376Z,18.42
2022-12-24T07:44:44.276Z,18.80
2022-12-24T07:47:20.808Z,19.75
2022-12-24T07:49:47.911Z,17.85
2022-12-24T07:52:15.070Z,21.45
2022-12-24T07:54:47.283Z,19.73
2022-12-24T07:57:14.414Z,17.08
2022-12-24T07:59:41.394Z,17.08
2022-12-24T08:02:17.633Z,18.42
2022-12-24T08:04:45.418Z,21.17
2022-12-24T08:07:14.958Z,21.85
2022-12-24T08:09:42.131Z,20.70
2022-12-24T08:12:09.401Z,20.35
2022-12-24T08:15:05.087Z,25.33
2022-12-24T08:17:37.069Z,23.02
2022-12-24T08:20:07.834Z,20.10
2022-12-24T08:22:34.865Z,21.15
2022-12-24T08:25:01.874Z,18.90
2022-12-24T08:27:28.972Z,14.65
2022-12-24T08:29:55.970Z,21.48
2022-12-24T08:32:23.035Z,18.02
2022-12-24T08:34:51.570Z,17.35
2022-12-24T08:37:18.569Z,16.58
2022-12-24T08:39:45.966Z,17.52
2022-12-24T08:42:13.062Z,17.42
2022-12-24T08:44:40.339Z,18.08
2022-12-24T08:47:07.577Z,25.35
2022-12-24T08:49:34.522Z,23.08
2022-12-24T08:52:09.022Z,19.15
2022-12-24T08:54:36.059Z,17.52
2022-12-24T08:57:03.366Z,16.58
2022-12-24T08:59:30.600Z,17.15
2022-12-24T09:02:00.094Z,19.30
2022-12-24T09:04:28.443Z,22.75
2022-12-24T09:09:46.939Z,28.90
2022-12-24T09:12:14.110Z,26.70
2022-12-24T09:14:41.249Z,27.13
2022-12-24T09:17:08.232Z,27.05
2022-12-24T09:19:35.287Z,30.80
2022-12-24T09:22:02.236Z,42.47
2022-12-24T09:24:29.217Z,30.50
2022-12-24T09:26:58.094Z,30.02
2022-12-24T09:29:25.575Z,27.15
2022-12-24T09:31:52.807Z,24.73
2022-12-24T09:34:21.739Z,24.02
2022-12-24T09:36:54.347Z,20.85
2022-12-24T09:39:21.331Z,22.70
2022-12-24T09:42:29.316Z,22.52
2022-12-24T09:45:01.365Z,23.02
2022-12-24T09:47:39.982Z,24.65
2022-12-24T09:50:25.941Z,24.17
2022-12-24T09:52:53.290Z,21.05
2022-12-24T09:55:44.971Z,25.52
2022-12-24T09:58:21.928Z,22.27
2022-12-24T10:00:50.301Z,22.27
2022-12-24T10:03:17.994Z,17.10
2022-12-24T10:06:09.023Z,17.85
2022-12-24T10:08:54.222Z,17.15
2022-12-24T10:11:49.769Z,12.55
2022-12-24T10:14:56.626Z,15.95
2022-12-24T10:20:21.712Z,6.50
2022-12-24T10:23:10.543Z,7.15
2022-12-24T10:25:51.504Z,7.43
2022-12-24T10:28:29.943Z,4.47
2022-12-24T10:31:00.305Z,5.45
2022-12-24T10:33:44.226Z,10.65
2022-12-24T10:36:18.834Z,3.22
2022-12-24T10:38:50.939Z,6.38
2022-12-24T10:41:20.333Z,2.58
2022-12-24T10:43:47.346Z,5.78
2022-12-24T10:46:35.912Z,3.95
2022-12-24T10:49:04.948Z,9.75
2022-12-24T10:51:43.169Z,4.90
2022-12-24T10:54:34.206Z,5.10
2022-12-24T10:57:24.248Z,8.48
2022-12-24T10:59:55.350Z,3.78
2022-12-24T11:02:38.401Z,6.22
2022-12-24T11:05:28.774Z,6.57
2022-12-24T11:08:20.498Z,9.02
2022-12-24T11:11:34.199Z,5.60
2022-12-24T11:14:01.585Z,4.18
2022-12-24T11:16:30.523Z,3.63
2022-12-24T11:18:58.886Z,7.18
2022-12-24T11:21:32.228Z,5.45
2022-12-24T11:24:03.090Z,6.60
2022-12-24T11:26:30.936Z,4.95
2022-12-24T11:29:30.783Z,7.82
2022-12-24T11:32:21.654Z,10.95
2022-12-24T11:34:49.096Z,7.60
2022-12-24T11:37:24.104Z,9.90
2022-12-24T11:40:00.407Z,6.32
2022-12-24T11:42:38.164Z,7.85
2022-12-24T11:45:26.443Z,9.48
2022-12-24T11:48:59.259Z,7.50
2022-12-24T11:51:29.744Z,8.98
2022-12-24T11:54:11.467Z,4.80
2022-12-24T11:56:52.602Z,7.95
2022-12-24T11:59:27.370Z,15.30
2022-12-24T12:02:53.603Z,9.60
2022-12-24T12:12:16.027Z,4.90
2022-12-24T12:15:01.193Z,9.82
2022-12-24T12:17:38.207Z,8.50
2022-12-24T12:20:43.763Z,9.93
2022-12-24T12:23:34.790Z,11.73
2022-12-24T12:26:09.174Z,9.00
2022-12-24T12:29:01.872Z,15.63
2022-12-24T12:31:49.314Z,16.30
2022-12-24T12:34:21.265Z,14.77
2022-12-24T12:37:33.281Z,12.50
2022-12-24T12:40:00.641Z,11.38
2022-12-24T12:42:59.150Z,11.27
2022-12-24T12:45:59.072Z,11.00
2022-12-24T12:48:29.190Z,7.03
2022-12-24T12:51:02.942Z,8.82
2022-12-24T12:54:04.938Z,12.57
2022-12-24T12:56:35.653Z,7.88
2022-12-24T12:59:10.750Z,13.80
2022-12-24T13:02:09.384Z,11.27
2022-12-24T13:04:36.506Z,11.68
2022-12-24T13:07:26.245Z,9.18
2022-12-24T13:10:02.326Z,8.07
2022-12-24T13:12:51.161Z,10.52
2022-12-24T13:15:29.910Z,10.25
2022-12-24T13:18:01.672Z,22.15
2022-12-24T13:20:32.585Z,9.45
2022-12-24T13:23:02.187Z,7.88
2022-12-24T13:25:49.300Z,8.40
2022-12-24T13:28:24.533Z,11.90
2022-12-24T13:31:12.667Z,8.88
2022-12-24T13:33:39.654Z,18.75
2022-12-24T13:36:11.984Z,11.77
2022-12-24T13:38:56.900Z,11.55
2022-12-24T13:41:41.406Z,10.35
2022-12-24T13:44:13.316Z,12.27
2022-12-24T13:46:49.620Z,9.93
2022-12-24T13:49:33.501Z,10.43
2022-12-24T13:52:09.510Z,10.68
2022-12-24T13:54:42.801Z,16.35
2022-12-24T13:57:41.696Z,16.15
2022-12-24T14:00:20.682Z,24.55
2022-12-24T14:03:07.801Z,17.67
2022-12-24T14:05:38.101Z,19.38
2022-12-24T14:08:13.556Z,17.73
2022-12-24T14:10:46.299Z,24.35
2022-12-24T14:13:38.119Z,17.80
2022-12-24T14:16:21.806Z,17.85
2022-12-24T14:18:58.780Z,18.17
2022-12-24T14:21:35.052Z,14.55
2022-12-24T14:26:36.264Z,12.55
2022-12-24T14:29:12.026Z,11.48
2022-12-24T14:31:49.889Z,16.63
2022-12-24T14:34:17.023Z,11.98
2022-12-24T14:36:44.545Z,10.50
2022-12-24T14:39:16.508Z,11.13
2022-12-24T14:41:59.800Z,11.15
2022-12-24T14:44:48.492Z,8.77
2022-12-24T14:47:21.755Z,11.68
2022-12-24T14:50:26.092Z,15.07
2022-12-24T14:53:18.833Z,11.90
2022-12-24T14:55:47.770Z,10.50
2022-12-24T14:58:53.298Z,18.52
2022-12-24T15:01:25.343Z,12.25
2022-12-24T15:04:10.677Z,13.60
2022-12-24T15:06:52.849Z,16.75
2022-12-24T15:09:24.498Z,16.85
2022-12-24T15:11:54.312Z,16.27
2022-12-24T15:14:22.030Z,19.00
2022-12-24T15:17:18.589Z,19.35
2022-12-24T15:19:47.015Z,23.35
2022-12-24T15:22:25.586Z,20.35
2022-12-24T15:24:52.671Z,12.93
2022-12-24T15:27:21.703Z,15.40
2022-12-24T15:29:50.501Z,16.60
2022-12-24T15:32:18.989Z,16.00
2022-12-24T15:34:47.564Z,16.65
2022-12-24T15:37:17.648Z,20.15
2022-12-24T15:39:44.844Z,28.58
2022-12-24T15:42:14.720Z,27.05
2022-12-24T15:45:05.111Z,40.75
2022-12-24T15:47:39.060Z,46.35
2022-12-24T15:50:15.875Z,59.17
2022-12-24T15:52:42.929Z,58.63
2022-12-24T15:55:38.710Z,47.45
2022-12-24T15:58:27.289Z,41.85
2022-12-24T16:01:09.812Z,40.80
2022-12-24T16:03:38.459Z,52.65
2022-12-24T16:06:06.669Z,37.75
2022-12-24T16:08:39.187Z,36.15
2022-12-24T16:11:08.229Z,29.85
2022-12-24T16:13:41.001Z,29.25
2022-12-24T16:16:12.880Z,29.67
2022-12-24T16:18:49.283Z,30.42
2022-12-24T16:21:53.896Z,30.13
2022-12-24T16:24:23.413Z,21.48
2022-12-24T16:26:50.786Z,17.33
2022-12-24T16:29:19.476Z,14.90
2022-12-24T16:31:51.043Z,15.70
2022-12-24T16:34:18.120Z,20.95
2022-12-24T16:36:45.812Z,15.50
2022-12-24T16:39:33.800Z,20.30
2022-12-24T16:42:21.304Z,20.20
2022-12-24T16:44:48.682Z,13.95
2022-12-24T16:47:22.888Z,20.92
2022-12-24T16:49:57.570Z,18.40
2022-12-24T16:52:29.810Z,23.27
2022-12-24T16:54:57.389Z,24.75
2022-12-24T16:57:25.329Z,23.45
2022-12-24T16:59:57.584Z,25.00
2022-12-24T17:02:28.169Z,20.30
2022-12-24T17:05:04.701Z,19.35
2022-12-24T17:07:31.859Z,25.25
2022-12-24T17:09:58.950Z,23.73
2022-12-24T17:12:26.183Z,15.98
2022-12-24T17:14:54.396Z,21.95
2022-12-24T17:17:33.901Z,20.02
2022-12-24T17:20:04.930Z,22.23
2022-12-24T17:22:32.108Z,15.45
2022-12-24T17:24:59.185Z,22.00
2022-12-24T17:27:26.457Z,21.77
2022-12-24T17:29:54.883Z,20.50
2022-12-24T17:32:22.201Z,20.25
2022-12-24T17:34:49.326Z,20.35
2022-12-24T17:37:16.396Z,22.92
2022-12-24T17:39:43.389Z,24.40
2022-12-24T17:42:10.598Z,22.05
2022-12-24T17:44:37.587Z,21.60
2022-12-24T17:47:05.438Z,24.75
2022-12-24T17:49:32.720Z,23.73
2022-12-24T17:52:00.106Z,23.70
2022-12-24T17:54:27.082Z,23.80
2022-12-24T17:56:54.144Z,28.05
2022-12-24T17:59:21.310Z,36.53
2022-12-24T18:01:56.749Z,34.08
2022-12-24T18:04:26.219Z,38.17
2022-12-24T18:06:59.584Z,42.92
2022-12-24T18:09:29.498Z,34.47
2022-12-24T18:11:56.547Z,43.95
2022-12-24T18:14:23.607Z,44.80
2022-12-24T18:16:50.750Z,44.45
2022-12-24T18:19:17.857Z,43.65
2022-12-24T18:21:46.111Z,43.97
2022-12-24T18:24:13.359Z,43.00
2022-12-24T18:26:40.463Z,43.45
2022-12-24T18:29:08.966Z,44.55
2022-12-24T18:31:36.416Z,47.08
2022-12-24T18:34:04.503Z,48.17
2022-12-24T18:36:31.767Z,44.92
2022-12-24T18:38:58.885Z,42.47
2022-12-24T18:41:27.916Z,39.25
2022-12-24T18:43:55.071Z,42.97
2022-12-24T18:46:23.857Z,43.78
2022-12-24T18:48:51.117Z,42.15
2022-12-24T18:51:18.960Z,36.28
2022-12-24T18:53:45.896Z,41.03
2022-12-24T18:56:15.934Z,40.25
2022-12-24T18:58:43.318Z,35.47
2022-12-24T19:01:18.031Z,33.42
2022-12-24T19:03:45.329Z,37.72
2022-12-24T19:06:12.272Z,32.47
2022-12-24T19:08:56.990Z,34.13
2022-12-24T19:11:25.338Z,30.42
2022-12-24T19:13:53.261Z,29.48
2022-12-24T19:16:20.744Z,26.67
2022-12-24T19:18:47.942Z,29.67
2022-12-24T19:21:15.685Z,26.90
2022-12-24T19:23:42.918Z,31.92
2022-12-24T19:26:11.236Z,27.40
2022-12-24T19:28:38.326Z,26.98
2022-12-24T19:31:15.054Z,29.42
2022-12-24T19:33:46.777Z,25.60
2022-12-24T19:36:16.134Z,23.20
2022-12-24T19:38:43.654Z,23.10
2022-12-24T19:41:16.096Z,22.42
2022-12-24T19:43:46.674Z,21.83
2022-12-24T19:46:15.249Z,16.10
2022-12-24T19:48:45.423Z,17.08
2022-12-24T19:51:12.624Z,24.85
2022-12-24T19:53:39.751Z,21.52
2022-12-24T19:56:07.280Z,19.27
2022-12-24T19:58:34.482Z,24.95
2022-12-24T20:01:14.737Z,23.60
2022-12-24T20:03:42.463Z,18.63
2022-12-24T20:06:09.624Z,18.88
2022-12-24T20:08:37.206Z,22.75
2022-12-24T20:11:06.675Z,33.45
2022-12-24T20:13:37.303Z,29.55
2022-12-24T20:16:09.194Z,28.67
2022-12-24T20:18:36.533Z,25.40
2022-12-24T20:21:05.172Z,26.30
2022-12-24T20:23:32.173Z,26.65
2022-12-24T20:26:01.516Z,28.02
2022-12-24T20:28:29.156Z,35.20
2022-12-24T20:30:56.249Z,32.88
2022-12-24T20:33:23.275Z,32.80
2022-12-24T20:35:50.318Z,31.80
2022-12-24T20:38:17.387Z,33.85
2022-12-24T20:40:45.245Z,35.85
2022-12-24T20:43:12.878Z,35.80
2022-12-24T20:45:40.100Z,43.03
2022-12-24T20:48:07.229Z,35.15
2022-12-24T20:50:34.348Z,37.22
2022-12-24T20:53:01.374Z,34.72
2022-12-24T20:55:28.485Z,33.25
2022-12-24T20:57:55.573Z,35.53
2022-12-24T21:00:23.523Z,30.08
2022-12-24T21:02:52.110Z,28.30
2022-12-24T21:05:19.297Z,27.20
2022-12-24T21:07:48.237Z,26.85
2022-12-24T21:10:15.590Z,28.88
2022-12-24T21:12:59.052Z,24.70
2022-12-24T21:15:28.177Z,24.30
2022-12-24T21:17:55.741Z,22.52
2022-12-24T21:20:25.024Z,24.60
2022-12-24T21:22:55.970Z,25.90
2022-12-24T21:25:27.598Z,26.63
2022-12-24T21:27:57.386Z,29.13
2022-12-24T21:30:24.703Z,30.10
2022-12-24T21:32:51.930Z,26.67
2022-12-24T21:35:19.059Z,33.42
2022-12-24T21:37:48.588Z,31.42
2022-12-24T21:40:15.659Z,28.13
2022-12-24T21:42:42.803Z,25.42
2022-12-24T21:45:10.945Z,22.80
2022-12-24T21:47:38.421Z,22.55
2022-12-24T21:50:29.984Z,22.42
2022-12-24T21:53:19.179Z,23.23
2022-12-24T21:55:46.367Z,28.42
2022-12-24T21:58:13.707Z,33.85
2022-12-24T22:00:40.993Z,31.95
2022-12-24T22:03:11.152Z,40.88
2022-12-24T22:05:38.192Z,43.20
2022-12-24T22:08:27.738Z,41.35
2022-12-24T22:11:16.451Z,44.50
2022-12-24T22:13:43.454Z,36.88
2022-12-24T22:16:16.067Z,38.30
2022-12-24T22:18:43.272Z,39.45
2022-12-24T22:21:11.524Z,36.63
2022-12-24T22:23:42.362Z,32.75
2022-12-24T22:26:11.911Z,29.90
2022-12-24T22:28:39.007Z,28.85
2022-12-24T22:31:08.372Z,31.42
2022-12-24T22:33:42.125Z,32.17
2022-12-24T22:38:36.455Z,27.35
2022-12-24T22:41:09.809Z,24.00
2022-12-24T22:43:39.821Z,26.95
2022-12-24T22:46:07.918Z,20.38
2022-12-24T22:48:43.456Z,23.88
2022-12-24T22:51:14.168Z,24.67
2022-12-24T22:53:41.435Z,22.52
2022-12-24T22:56:09.673Z,24.40
2022-12-24T22:58:37.272Z,26.40
2022-12-24T23:01:06.476Z,25.58
2022-12-24T23:03:33.944Z,27.60
2022-12-24T23:06:04.094Z,25.45
2022-12-24T23:08:32.138Z,22.10
2022-12-24T23:11:15.756Z,25.27
2022-12-24T23:14:02.781Z,24.80
2022-12-24T23:16:33.397Z,23.20
2022-12-24T23:19:01.194Z,23.67
2022-12-24T23:21:28.217Z,23.15
2022-12-24T23:23:57.089Z,27.35
2022-12-24T23:26:24.381Z,28.20
2022-12-24T23:28:53.226Z,26.20
2022-12-24T23:31:20.780Z,27.05
2022-12-24T23:33:48.010Z,30.67
2022-12-24T23:36:15.215Z,23.75
2022-12-24T23:38:42.252Z,23.55
2022-12-24T23:41:09.396Z,23.40
2022-12-24T23:43:36.459Z,20.83
2022-12-24T23:46:03.565Z,22.35
2022-12-24T23:48:30.557Z,23.10
2022-12-24T23:51:14.065Z,20.58
2022-12-24T23:53:41.086Z,17.30
2022-12-24T23:56:08.396Z,16.90
2022-12-24T23:58:35.439Z,20.33
